sensor_id;sensor_type;location;lat;lon;timestamp;pressure;altitude;pressure_sealevel;temperature;humidity
44734;BME280;30462;52.446;-1.930;2022-12-07T00:00:19;101106.4258;;;;
44734;BME280;30462;52.446;-1.930;2022-12-07T00:01:19;101103.3828;;;;
44734;BME280;30462;52.446;-1.930;2022-12-07T00:02:18;101103.3008;;;;
44734;BME280;30462;52.446;-1.930;2022-12-07T00:03:18;101100.1055;;;;
44734;BME280;30462;52.446;-1.930;2022-12-07T00:04:18;101101.0742;;;;
44734;BME280;30462;52.446;-1.930;2022-12-07T00:05:18;101097.9609;;;;
44734;BME280;30462;52.446;-1.930;2022-12-07T00:06:18;101097.3945;;;;
44734;BME280;30462;52.446;-1.930;2022-12-07T00:07:17;101097.3164;;;;
44734;BME280;30462;52.446;-1.930;2022-12-07T00:08:18;101093.7109;;;;
44734;BME280;30462;52.446;-1.930;2022-12-07T00:09:18;101094.5664;;;;
44734;BME280;30462;52.446;-1.930;2022-12-07T00:10:18;101094.4414;;;;
44734;BME280;30462;52.446;-1.930;2022-12-07T00:11:19;101097.1953;;;;
44734;BME280;30462;52.446;-1.930;2022-12-07T00:12:18;101097.4766;;;;
44734;BME280;30462;52.446;-1.930;2022-12-07T00:13:17;101096.2617;;;;
44734;BME280;30462;52.446;-1.930;2022-12-07T00:14:19;101100.9961;;;;
44734;BME280;30462;52.446;-1.930;2022-12-07T00:15:17;101102.6875;;;;
44734;BME280;30462;52.446;-1.930;2022-12-07T00:16:20;101100.7891;;;;
44734;BME280;30462;52.446;-1.930;2022-12-07T00:17:18;101100.3867;;;;
44734;BME280;30462;52.446;-1.930;2022-12-07T00:18:19;101098.1172;;;;
44734;BME280;30462;52.446;-1.930;2022-12-07T00:19:18;101094.4336;;;;
44734;BME280;30462;52.446;-1.930;2022-12-07T00:20:18;101090.6719;;;;
44734;BME280;30462;52.446;-1.930;2022-12-07T00:21:19;101098.3242;;;;
44734;BME280;30462;52.446;-1.930;2022-12-07T00:22:19;101101.5547;;;;
44734;BME280;30462;52.446;-1.930;2022-12-07T00:23:18;101098.5977;;;;
44734;BME280;30462;52.446;-1.930;2022-12-07T00:24:18;101099.4883;;;;
44734;BME280;30462;52.446;-1.930;2022-12-07T00:25:18;101097.4688;;;;
44734;BME280;30462;52.446;-1.930;2022-12-07T00:26:19;101093.6563;;;;
44734;BME280;30462;52.446;-1.930;2022-12-07T00:27:18;101098.3047;;;;
44734;BME280;30462;52.446;-1.930;2022-12-07T00:28:17;101098.5508;;;;
44734;BME280;30462;52.446;-1.930;2022-12-07T00:29:19;101098.0625;;;;
44734;BME280;30462;52.446;-1.930;2022-12-07T00:30:18;101099.4805;;;;
44734;BME280;30462;52.446;-1.930;2022-12-07T00:31:19;101098.0625;;;;
44734;BME280;30462;52.446;-1.930;2022-12-07T00:32:18;101094.3008;;;;
44734;BME280;30462;52.446;-1.930;2022-12-07T00:33:18;101098.6758;;;;
44734;BME280;30462;52.446;-1.930;2022-12-07T00:34:18;101098.5547;;;;
44734;BME280;30462;52.446;-1.930;2022-12-07T00:35:18;101097.4609;;;;
44734;BME280;30462;52.446;-1.930;2022-12-07T00:36:19;101096.5273;;;;
44734;BME280;30462;52.446;-1.930;2022-12-07T00:37:18;101097.9883;;;;
44734;BME280;30462;52.446;-1.930;2022-12-07T00:38:18;101098.1094;;;;
44734;BME280;30462;52.446;-1.930;2022-12-07T00:39:18;101098.957;;;;
44734;BME280;30462;52.446;-1.930;2022-12-07T00:40:18;101089.8125;;;;
44734;BME280;30462;52.446;-1.930;2022-12-07T00:41:18;101095.0273;;;;
44734;BME280;30462;52.446;-1.930;2022-12-07T00:42:17;101092.8047;;;;
44734;BME280;30462;52.446;-1.930;2022-12-07T00:43:18;101088.4297;;;;
44734;BME280;30462;52.446;-1.930;2022-12-07T00:44:18;101090.2148;;;;
44734;BME280;30462;52.446;-1.930;2022-12-07T00:45:18;101091.75;;;;
44734;BME280;30462;52.446;-1.930;2022-12-07T00:46:19;101090.2539;;;;
44734;BME280;30462;52.446;-1.930;2022-12-07T00:47:18;101090.4609;;;;
44734;BME280;30462;52.446;-1.930;2022-12-07T00:48:18;101091.9961;;;;
44734;BME280;30462;52.446;-1.930;2022-12-07T00:49:18;101093.0469;;;;
44734;BME280;30462;52.446;-1.930;2022-12-07T00:50:18;101091.0664;;;;
44734;BME280;30462;52.446;-1.930;2022-12-07T00:51:19;101087.5;;;;
44734;BME280;30462;52.446;-1.930;2022-12-07T00:52:18;101090.1289;;;;
44734;BME280;30462;52.446;-1.930;2022-12-07T00:53:18;101090.2148;;;;
44734;BME280;30462;52.446;-1.930;2022-12-07T00:54:18;101092.2344;;;;
44734;BME280;30462;52.446;-1.930;2022-12-07T00:55:18;101091.625;;;;
44734;BME280;30462;52.446;-1.930;2022-12-07T00:56:18;101090.2891;;;;
44734;BME280;30462;52.446;-1.930;2022-12-07T00:57:18;101091.543;;;;
44734;BME280;30462;52.446;-1.930;2022-12-07T00:58:18;101090.2422;;;;
44734;BME280;30462;52.446;-1.930;2022-12-07T00:59:18;101090.8867;;;;
44734;BME280;30462;52.446;-1.930;2022-12-07T01:00:18;101089.918;;;;
44734;BME280;30462;52.446;-1.930;2022-12-07T01:01:18;101085.5508;;;;
44734;BME280;30462;52.446;-1.930;2022-12-07T01:02:17;101083.3242;;;;
44734;BME280;30462;52.446;-1.930;2022-12-07T01:03:18;101084.6563;;;;
44734;BME280;30462;52.446;-1.930;2022-12-07T01:04:18;101086.0352;;;;
44734;BME280;30462;52.446;-1.930;2022-12-07T01:05:18;101081.1016;;;;
44734;BME280;30462;52.446;-1.930;2022-12-07T01:06:18;101083.1211;;;;
44734;BME280;30462;52.446;-1.930;2022-12-07T01:07:18;101084.8203;;;;
44734;BME280;30462;52.446;-1.930;2022-12-07T01:08:18;101082.957;;;;
44734;BME280;30462;52.446;-1.930;2022-12-07T01:09:18;101084.7813;;;;
44734;BME280;30462;52.446;-1.930;2022-12-07T01:10:18;101086.0313;;;;
44734;BME280;30462;52.446;-1.930;2022-12-07T01:11:18;101083.6406;;;;
44734;BME280;30462;52.446;-1.930;2022-12-07T01:12:17;101082.2227;;;;
44734;BME280;30462;52.446;-1.930;2022-12-07T01:13:18;101083.6016;;;;
44734;BME280;30462;52.446;-1.930;2022-12-07T01:14:18;101082.5898;;;;
44734;BME280;30462;52.446;-1.930;2022-12-07T01:15:18;101082.8281;;;;
44734;BME280;30462;52.446;-1.930;2022-12-07T01:16:19;101084.082;;;;
44734;BME280;30462;52.446;-1.930;2022-12-07T01:17:18;101080.1172;;;;
44734;BME280;30462;52.446;-1.930;2022-12-07T01:18:17;101080.5586;;;;
44734;BME280;30462;52.446;-1.930;2022-12-07T01:19:18;101084.2813;;;;
44734;BME280;30462;52.446;-1.930;2022-12-07T01:20:18;101079.3047;;;;
44734;BME280;30462;52.446;-1.930;2022-12-07T01:21:19;101076.5508;;;;
44734;BME280;30462;52.446;-1.930;2022-12-07T01:22:18;101076.1055;;;;
44734;BME280;30462;52.446;-1.930;2022-12-07T01:23:17;101071.9336;;;;
44734;BME280;30462;52.446;-1.930;2022-12-07T01:24:17;101077.2305;;;;
44734;BME280;30462;52.446;-1.930;2022-12-07T01:25:18;101077.5156;;;;
44734;BME280;30462;52.446;-1.930;2022-12-07T01:26:19;101073.6289;;;;
44734;BME280;30462;52.446;-1.930;2022-12-07T01:27:18;101073.7852;;;;
44734;BME280;30462;52.446;-1.930;2022-12-07T01:28:18;101073.2656;;;;
44734;BME280;30462;52.446;-1.930;2022-12-07T01:29:18;101073.9922;;;;
44734;BME280;30462;52.446;-1.930;2022-12-07T01:30:18;101072.375;;;;
44734;BME280;30462;52.446;-1.930;2022-12-07T01:31:19;101075.7383;;;;
44734;BME280;30462;52.446;-1.930;2022-12-07T01:32:18;101073.957;;;;
44734;BME280;30462;52.446;-1.930;2022-12-07T01:33:17;101075.7773;;;;
44734;BME280;30462;52.446;-1.930;2022-12-07T01:34:18;101075.0781;;;;
44734;BME280;30462;52.446;-1.930;2022-12-07T01:35:18;101075.5664;;;;
44734;BME280;30462;52.446;-1.930;2022-12-07T01:36:19;101077.2266;;;;
44734;BME280;30462;52.446;-1.930;2022-12-07T01:37:18;101076.5352;;;;
44734;BME280;30462;52.446;-1.930;2022-12-07T01:38:18;101077.2656;;;;
44734;BME280;30462;52.446;-1.930;2022-12-07T01:39:18;101078.7227;;;;
44734;BME280;30462;52.446;-1.930;2022-12-07T01:40:18;101073.9922;;;;
44734;BME280;30462;52.446;-1.930;2022-12-07T01:41:18;101075.5273;;;;
44734;BME280;30462;52.446;-1.930;2022-12-07T01:42:18;101075.4414;;;;
44734;BME280;30462;52.446;-1.930;2022-12-07T01:43:18;101078.3555;;;;
44734;BME280;30462;52.446;-1.930;2022-12-07T01:44:22;101079.8086;;;;
44734;BME280;30462;52.446;-1.930;2022-12-07T01:46:18;101073.3359;;;;
44734;BME280;30462;52.446;-1.930;2022-12-07T01:47:18;101071.6016;;;;
44734;BME280;30462;52.446;-1.930;2022-12-07T01:48:18;101072.8594;;;;
44734;BME280;30462;52.446;-1.930;2022-12-07T01:49:21;101071.4375;;;;
44734;BME280;30462;52.446;-1.930;2022-12-07T01:50:18;101076.3281;;;;
44734;BME280;30462;52.446;-1.930;2022-12-07T01:51:17;101074.3867;;;;
44734;BME280;30462;52.446;-1.930;2022-12-07T01:52:19;101078.1836;;;;
44734;BME280;30462;52.446;-1.930;2022-12-07T01:53:18;101076.4883;;;;
44734;BME280;30462;52.446;-1.930;2022-12-07T01:54:18;101072.6875;;;;
44734;BME280;30462;52.446;-1.930;2022-12-07T01:55:18;101074.0625;;;;
44734;BME280;30462;52.446;-1.930;2022-12-07T01:56:18;101073.8594;;;;
44734;BME280;30462;52.446;-1.930;2022-12-07T01:57:17;101076.1953;;;;
44734;BME280;30462;52.446;-1.930;2022-12-07T01:58:18;101073.7188;;;;
44734;BME280;30462;52.446;-1.930;2022-12-07T01:59:19;101075.0547;;;;
44734;BME280;30462;52.446;-1.930;2022-12-07T02:00:18;101074.207;;;;
44734;BME280;30462;52.446;-1.930;2022-12-07T02:01:18;101072.1445;;;;
44734;BME280;30462;52.446;-1.930;2022-12-07T02:02:19;101074.4102;;;;
44734;BME280;30462;52.446;-1.930;2022-12-07T02:03:18;101073.5586;;;;
44734;BME280;30462;52.446;-1.930;2022-12-07T02:04:18;101069.8398;;;;
44734;BME280;30462;52.446;-1.930;2022-12-07T02:05:19;101068.207;;;;
44734;BME280;30462;52.446;-1.930;2022-12-07T02:06:19;101065.1797;;;;
44734;BME280;30462;52.446;-1.930;2022-12-07T02:07:18;101067.082;;;;
44734;BME280;30462;52.446;-1.930;2022-12-07T02:08:18;101070.6328;;;;
44734;BME280;30462;52.446;-1.930;2022-12-07T02:09:18;101072.5391;;;;
44734;BME280;30462;52.446;-1.930;2022-12-07T02:10:19;101075.7734;;;;
44734;BME280;30462;52.446;-1.930;2022-12-07T02:11:18;101077.7109;;;;
44734;BME280;30462;52.446;-1.930;2022-12-07T02:12:18;101075.7695;;;;
44734;BME280;30462;52.446;-1.930;2022-12-07T02:13:18;101078.8828;;;;
44734;BME280;30462;52.446;-1.930;2022-12-07T02:14:18;101079.3281;;;;
44734;BME280;30462;52.446;-1.930;2022-12-07T02:15:18;101079.6523;;;;
44734;BME280;30462;52.446;-1.930;2022-12-07T02:16:21;101081.7578;;;;
44734;BME280;30462;52.446;-1.930;2022-12-07T02:17:19;101083.4102;;;;
44734;BME280;30462;52.446;-1.930;2022-12-07T02:18:19;101082.8398;;;;
44734;BME280;30462;52.446;-1.930;2022-12-07T02:20:21;101075.957;;;;
44734;BME280;30462;52.446;-1.930;2022-12-07T02:21:19;101076.0742;;;;
44734;BME280;30462;52.446;-1.930;2022-12-07T02:25:22;101086.2773;;;;
44734;BME280;30462;52.446;-1.930;2022-12-07T02:28:19;101082.0273;;;;
44734;BME280;30462;52.446;-1.930;2022-12-07T02:29:21;101080.207;;;;
44734;BME280;30462;52.446;-1.930;2022-12-07T02:30:18;101081.3398;;;;
44734;BME280;30462;52.446;-1.930;2022-12-07T02:31:19;101079.3164;;;;
44734;BME280;30462;52.446;-1.930;2022-12-07T02:32:18;101083.9648;;;;
44734;BME280;30462;52.446;-1.930;2022-12-07T02:33:19;101084.4805;;;;
44734;BME280;30462;52.446;-1.930;2022-12-07T02:34:24;101082.0039;;;;
44734;BME280;30462;52.446;-1.930;2022-12-07T02:35:20;101082.9297;;;;
44734;BME280;30462;52.446;-1.930;2022-12-07T02:36:21;101074.4766;;;;
44734;BME280;30462;52.446;-1.930;2022-12-07T02:37:25;101073.2227;;;;
44734;BME280;30462;52.446;-1.930;2022-12-07T02:38:20;101072.1328;;;;
44734;BME280;30462;52.446;-1.930;2022-12-07T02:39:19;101068.0078;;;;
44734;BME280;30462;52.446;-1.930;2022-12-07T02:40:20;101071.3281;;;;
44734;BME280;30462;52.446;-1.930;2022-12-07T02:41:19;101072.375;;;;
44734;BME280;30462;52.446;-1.930;2022-12-07T02:42:21;101074.9258;;;;
44734;BME280;30462;52.446;-1.930;2022-12-07T02:43:19;101076.2969;;;;
44734;BME280;30462;52.446;-1.930;2022-12-07T02:44:19;101072.6992;;;;
44734;BME280;30462;52.446;-1.930;2022-12-07T02:45:19;101063.2852;;;;
44734;BME280;30462;52.446;-1.930;2022-12-07T02:46:20;101066.9297;;;;
44734;BME280;30462;52.446;-1.930;2022-12-07T02:47:18;101062.2422;;;;
44734;BME280;30462;52.446;-1.930;2022-12-07T02:48:18;101064.1016;;;;
44734;BME280;30462;52.446;-1.930;2022-12-07T02:49:18;101065.7969;;;;
44734;BME280;30462;52.446;-1.930;2022-12-07T02:50:18;101065.5547;;;;
44734;BME280;30462;52.446;-1.930;2022-12-07T02:51:18;101065.875;;;;
44734;BME280;30462;52.446;-1.930;2022-12-07T02:52:18;101066.3242;;;;
44734;BME280;30462;52.446;-1.930;2022-12-07T02:54:19;101063.125;;;;
44734;BME280;30462;52.446;-1.930;2022-12-07T02:55:18;101058.0273;;;;
44734;BME280;30462;52.446;-1.930;2022-12-07T02:56:23;101057.3711;;;;
44734;BME280;30462;52.446;-1.930;2022-12-07T02:57:25;101056.7227;;;;
44734;BME280;30462;52.446;-1.930;2022-12-07T02:58:23;101060.0273;;;;
44734;BME280;30462;52.446;-1.930;2022-12-07T02:59:21;101057.8281;;;;
44734;BME280;30462;52.446;-1.930;2022-12-07T03:00:18;101060.6641;;;;
44734;BME280;30462;52.446;-1.930;2022-12-07T03:01:24;101059.4883;;;;
44734;BME280;30462;52.446;-1.930;2022-12-07T03:02:23;101060.3203;;;;
44734;BME280;30462;52.446;-1.930;2022-12-07T03:03:17;101058.8398;;;;
44734;BME280;30462;52.446;-1.930;2022-12-07T03:04:21;101054.4023;;;;
44734;BME280;30462;52.446;-1.930;2022-12-07T03:06:20;101052.4102;;;;
44734;BME280;30462;52.446;-1.930;2022-12-07T03:07:23;101051.7734;;;;
44734;BME280;30462;52.446;-1.930;2022-12-07T03:08:19;101053.0313;;;;
44734;BME280;30462;52.446;-1.930;2022-12-07T03:09:19;101051.457;;;;
44734;BME280;30462;52.446;-1.930;2022-12-07T03:10:20;101050.2773;;;;
44734;BME280;30462;52.446;-1.930;2022-12-07T03:11:23;101049.1484;;;;
44734;BME280;30462;52.446;-1.930;2022-12-07T03:12:18;101045.5938;;;;
44734;BME280;30462;52.446;-1.930;2022-12-07T03:13:19;101046.7695;;;;
44734;BME280;30462;52.446;-1.930;2022-12-07T03:14:23;101046.7695;;;;
44734;BME280;30462;52.446;-1.930;2022-12-07T03:15:20;101048.7773;;;;
44734;BME280;30462;52.446;-1.930;2022-12-07T03:16:21;101053.8984;;;;
44734;BME280;30462;52.446;-1.930;2022-12-07T03:17:19;101048.8867;;;;
44734;BME280;30462;52.446;-1.930;2022-12-07T03:18:18;101048.4453;;;;
44734;BME280;30462;52.446;-1.930;2022-12-07T03:19:18;101047.0273;;;;
44734;BME280;30462;52.446;-1.930;2022-12-07T03:20:19;101044.0664;;;;
44734;BME280;30462;52.446;-1.930;2022-12-07T03:21:18;101049.2461;;;;
44734;BME280;30462;52.446;-1.930;2022-12-07T03:22:18;101048.3477;;;;
44734;BME280;30462;52.446;-1.930;2022-12-07T03:23:18;101047.4961;;;;
44734;BME280;30462;52.446;-1.930;2022-12-07T03:24:19;101043.1328;;;;
44734;BME280;30462;52.446;-1.930;2022-12-07T03:25:18;101041.9219;;;;
44734;BME280;30462;52.446;-1.930;2022-12-07T03:26:18;101042.5742;;;;
44734;BME280;30462;52.446;-1.930;2022-12-07T03:27:19;101042.0898;;;;
44734;BME280;30462;52.446;-1.930;2022-12-07T03:28:18;101042.5586;;;;
44734;BME280;30462;52.446;-1.930;2022-12-07T03:29:19;101040.1758;;;;
44734;BME280;30462;52.446;-1.930;2022-12-07T03:30:19;101040.7422;;;;
44734;BME280;30462;52.446;-1.930;2022-12-07T03:31:19;101040.0859;;;;
44734;BME280;30462;52.446;-1.930;2022-12-07T03:32:19;101039.0781;;;;
44734;BME280;30462;52.446;-1.930;2022-12-07T03:33:19;101040.1641;;;;
44734;BME280;30462;52.446;-1.930;2022-12-07T03:34:21;101042.582;;;;
44734;BME280;30462;52.446;-1.930;2022-12-07T03:35:18;101036.9609;;;;
44734;BME280;30462;52.446;-1.930;2022-12-07T03:36:21;101036.4414;;;;
44734;BME280;30462;52.446;-1.930;2022-12-07T03:37:23;101036.4414;;;;
44734;BME280;30462;52.446;-1.930;2022-12-07T03:38:19;101035.8008;;;;
44734;BME280;30462;52.446;-1.930;2022-12-07T03:39:21;101037.6172;;;;
44734;BME280;30462;52.446;-1.930;2022-12-07T03:40:21;101030.1445;;;;
44734;BME280;30462;52.446;-1.930;2022-12-07T03:41:23;101030.9141;;;;
44734;BME280;30462;52.446;-1.930;2022-12-07T03:42:18;101027.7188;;;;
44734;BME280;30462;52.446;-1.930;2022-12-07T03:43:18;101026.8008;;;;
44734;BME280;30462;52.446;-1.930;2022-12-07T03:44:18;101029.832;;;;
44734;BME280;30462;52.446;-1.930;2022-12-07T03:45:17;101027.6836;;;;
44734;BME280;30462;52.446;-1.930;2022-12-07T03:46:19;101027.6016;;;;
44734;BME280;30462;52.446;-1.930;2022-12-07T03:47:22;101026.1484;;;;
44734;BME280;30462;52.446;-1.930;2022-12-07T03:48:22;101026.957;;;;
44734;BME280;30462;52.446;-1.930;2022-12-07T03:49:19;101023.2383;;;;
44734;BME280;30462;52.446;-1.930;2022-12-07T03:50:21;101022.4648;;;;
44734;BME280;30462;52.446;-1.930;2022-12-07T03:51:18;101025.1172;;;;
44734;BME280;30462;52.446;-1.930;2022-12-07T03:52:19;101027.2188;;;;
44734;BME280;30462;52.446;-1.930;2022-12-07T03:53:18;101021.9609;;;;
44734;BME280;30462;52.446;-1.930;2022-12-07T03:54:19;101016.1484;;;;
44734;BME280;30462;52.446;-1.930;2022-12-07T03:55:20;101020.0781;;;;
44734;BME280;30462;52.446;-1.930;2022-12-07T03:56:18;101019.4688;;;;
44734;BME280;30462;52.446;-1.930;2022-12-07T03:57:18;101016.4844;;;;
44734;BME280;30462;52.446;-1.930;2022-12-07T03:58:19;101017.6875;;;;
44734;BME280;30462;52.446;-1.930;2022-12-07T03:59:18;101017.7656;;;;
44734;BME280;30462;52.446;-1.930;2022-12-07T04:00:18;101019.0859;;;;
44734;BME280;30462;52.446;-1.930;2022-12-07T04:01:18;101017.1875;;;;
44734;BME280;30462;52.446;-1.930;2022-12-07T04:02:18;101017.7656;;;;
44734;BME280;30462;52.446;-1.930;2022-12-07T04:03:18;101015.2148;;;;
44734;BME280;30462;52.446;-1.930;2022-12-07T04:04:18;101013.5117;;;;
44734;BME280;30462;52.446;-1.930;2022-12-07T04:05:18;101015.1211;;;;
44734;BME280;30462;52.446;-1.930;2022-12-07T04:06:18;101016.0547;;;;
44734;BME280;30462;52.446;-1.930;2022-12-07T04:07:18;101014.9336;;;;
44734;BME280;30462;52.446;-1.930;2022-12-07T04:08:18;101015.5469;;;;
44734;BME280;30462;52.446;-1.930;2022-12-07T04:09:18;101014.6914;;;;
44734;BME280;30462;52.446;-1.930;2022-12-07T04:10:18;101012.8711;;;;
44734;BME280;30462;52.446;-1.930;2022-12-07T04:11:18;101011.8633;;;;
44734;BME280;30462;52.446;-1.930;2022-12-07T04:12:18;101010.7578;;;;
44734;BME280;30462;52.446;-1.930;2022-12-07T04:13:17;101008.9023;;;;
44734;BME280;30462;52.446;-1.930;2022-12-07T04:14:18;101005.5938;;;;
44734;BME280;30462;52.446;-1.930;2022-12-07T04:15:17;101003.5352;;;;
44734;BME280;30462;52.446;-1.930;2022-12-07T04:16:18;101004.8672;;;;
44734;BME280;30462;52.446;-1.930;2022-12-07T04:17:18;101003.332;;;;
44734;BME280;30462;52.446;-1.930;2022-12-07T04:18:18;101003.6953;;;;
44734;BME280;30462;52.446;-1.930;2022-12-07T04:19:19;101004.2305;;;;
44734;BME280;30462;52.446;-1.930;2022-12-07T04:20:18;101007.9063;;;;
44734;BME280;30462;52.446;-1.930;2022-12-07T04:21:18;101009.5586;;;;
44734;BME280;30462;52.446;-1.930;2022-12-07T04:22:18;101005.4453;;;;
44734;BME280;30462;52.446;-1.930;2022-12-07T04:23:18;101007.3906;;;;
44734;BME280;30462;52.446;-1.930;2022-12-07T04:24:18;101006.4648;;;;
44734;BME280;30462;52.446;-1.930;2022-12-07T04:25:18;101006.1836;;;;
44734;BME280;30462;52.446;-1.930;2022-12-07T04:26:17;101006.3047;;;;
44734;BME280;30462;52.446;-1.930;2022-12-07T04:27:17;101008.2422;;;;
44734;BME280;30462;52.446;-1.930;2022-12-07T04:28:18;101013.4961;;;;
44734;BME280;30462;52.446;-1.930;2022-12-07T04:29:18;101012.8516;;;;
44734;BME280;30462;52.446;-1.930;2022-12-07T04:30:18;101011.8828;;;;
44734;BME280;30462;52.446;-1.930;2022-12-07T04:31:18;101015.1211;;;;
44734;BME280;30462;52.446;-1.930;2022-12-07T04:32:18;101014.8477;;;;
44734;BME280;30462;52.446;-1.930;2022-12-07T04:33:18;101015.9414;;;;
44734;BME280;30462;52.446;-1.930;2022-12-07T04:34:19;101016.875;;;;
44734;BME280;30462;52.446;-1.930;2022-12-07T04:35:18;101016.3008;;;;
44734;BME280;30462;52.446;-1.930;2022-12-07T04:36:18;101013.457;;;;
44734;BME280;30462;52.446;-1.930;2022-12-07T04:37:17;101012.1289;;;;
44734;BME280;30462;52.446;-1.930;2022-12-07T04:38:18;101015.2461;;;;
44734;BME280;30462;52.446;-1.930;2022-12-07T04:39:19;101010.7305;;;;
44734;BME280;30462;52.446;-1.930;2022-12-07T04:40:18;101012.5898;;;;
44734;BME280;30462;52.446;-1.930;2022-12-07T04:41:18;101011.3008;;;;
44734;BME280;30462;52.446;-1.930;2022-12-07T04:42:18;101014.6445;;;;
44734;BME280;30462;52.446;-1.930;2022-12-07T04:43:18;101013.6328;;;;
44734;BME280;30462;52.446;-1.930;2022-12-07T04:44:18;101012.543;;;;
44734;BME280;30462;52.446;-1.930;2022-12-07T04:45:18;101016.2969;;;;
44734;BME280;30462;52.446;-1.930;2022-12-07T04:46:18;101013.0781;;;;
44734;BME280;30462;52.446;-1.930;2022-12-07T04:47:18;101014.7344;;;;
44734;BME280;30462;52.446;-1.930;2022-12-07T04:48:18;101012.9102;;;;
44734;BME280;30462;52.446;-1.930;2022-12-07T04:49:18;101012.1016;;;;
44734;BME280;30462;52.446;-1.930;2022-12-07T04:50:18;101014.3164;;;;
44734;BME280;30462;52.446;-1.930;2022-12-07T04:51:19;101016.4844;;;;
44734;BME280;30462;52.446;-1.930;2022-12-07T04:52:17;101017.293;;;;
44734;BME280;30462;52.446;-1.930;2022-12-07T04:53:18;101015.9141;;;;
44734;BME280;30462;52.446;-1.930;2022-12-07T04:54:18;101018.4648;;;;
44734;BME280;30462;52.446;-1.930;2022-12-07T04:55:18;101016.4922;;;;
44734;BME280;30462;52.446;-1.930;2022-12-07T04:56:18;101016.8906;;;;
44734;BME280;30462;52.446;-1.930;2022-12-07T04:57:18;101009.9805;;;;
44734;BME280;30462;52.446;-1.930;2022-12-07T04:58:18;101014.0273;;;;
44734;BME280;30462;52.446;-1.930;2022-12-07T04:59:17;101013.9883;;;;
44734;BME280;30462;52.446;-1.930;2022-12-07T05:00:18;101012.8633;;;;
44734;BME280;30462;52.446;-1.930;2022-12-07T05:01:18;101013.9492;;;;
44734;BME280;30462;52.446;-1.930;2022-12-07T05:02:18;101010.707;;;;
44734;BME280;30462;52.446;-1.930;2022-12-07T05:03:18;101012.1602;;;;
44734;BME280;30462;52.446;-1.930;2022-12-07T05:04:18;101011.082;;;;
44734;BME280;30462;52.446;-1.930;2022-12-07T05:05:18;101008.3281;;;;
44734;BME280;30462;52.446;-1.930;2022-12-07T05:06:18;101008.125;;;;
44734;BME280;30462;52.446;-1.930;2022-12-07T05:07:18;101007.1602;;;;
44734;BME280;30462;52.446;-1.930;2022-12-07T05:08:18;101008.1563;;;;
44734;BME280;30462;52.446;-1.930;2022-12-07T05:09:18;101001.3164;;;;
44734;BME280;30462;52.446;-1.930;2022-12-07T05:10:18;101002.2852;;;;
44734;BME280;30462;52.446;-1.930;2022-12-07T05:11:18;101002.6797;;;;
44734;BME280;30462;52.446;-1.930;2022-12-07T05:12:18;101001.2617;;;;
44734;BME280;30462;52.446;-1.930;2022-12-07T05:13:18;101005.2383;;;;
44734;BME280;30462;52.446;-1.930;2022-12-07T05:14:19;101002.6055;;;;
44734;BME280;30462;52.446;-1.930;2022-12-07T05:15:17;101004.625;;;;
44734;BME280;30462;52.446;-1.930;2022-12-07T05:16:18;101003.4063;;;;
44734;BME280;30462;52.446;-1.930;2022-12-07T05:17:18;101002.4297;;;;
44734;BME280;30462;52.446;-1.930;2022-12-07T05:18:18;101003.9492;;;;
44734;BME280;30462;52.446;-1.930;2022-12-07T05:19:18;101001.2422;;;;
44734;BME280;30462;52.446;-1.930;2022-12-07T05:20:18;101002.9805;;;;
44734;BME280;30462;52.446;-1.930;2022-12-07T05:21:17;101002.9375;;;;
44734;BME280;30462;52.446;-1.930;2022-12-07T05:22:17;101002.0859;;;;
44734;BME280;30462;52.446;-1.930;2022-12-07T05:23:18;101004.9492;;;;
44734;BME280;30462;52.446;-1.930;2022-12-07T05:24:18;101005.7539;;;;
44734;BME280;30462;52.446;-1.930;2022-12-07T05:25:17;101006.6328;;;;
44734;BME280;30462;52.446;-1.930;2022-12-07T05:26:17;101000.8047;;;;
44734;BME280;30462;52.446;-1.930;2022-12-07T05:27:18;100999.6797;;;;
44734;BME280;30462;52.446;-1.930;2022-12-07T05:28:18;100999.8789;;;;
44734;BME280;30462;52.446;-1.930;2022-12-07T05:29:17;100996.0664;;;;
44734;BME280;30462;52.446;-1.930;2022-12-07T05:30:18;100996.9336;;;;
44734;BME280;30462;52.446;-1.930;2022-12-07T05:31:18;100996.7813;;;;
44734;BME280;30462;52.446;-1.930;2022-12-07T05:32:18;101000.5859;;;;
44734;BME280;30462;52.446;-1.930;2022-12-07T05:33:18;100995.5352;;;;
44734;BME280;30462;52.446;-1.930;2022-12-07T05:34:18;100994.7695;;;;
44734;BME280;30462;52.446;-1.930;2022-12-07T05:35:18;100996.5273;;;;
44734;BME280;30462;52.446;-1.930;2022-12-07T05:36:18;100995.6016;;;;
44734;BME280;30462;52.446;-1.930;2022-12-07T05:37:18;100997.6523;;;;
44734;BME280;30462;52.446;-1.930;2022-12-07T05:38:17;100995.8047;;;;
44734;BME280;30462;52.446;-1.930;2022-12-07T05:39:18;100996.3672;;;;
44734;BME280;30462;52.446;-1.930;2022-12-07T05:40:18;100992.3242;;;;
44734;BME280;30462;52.446;-1.930;2022-12-07T05:41:18;100994.5039;;;;
44734;BME280;30462;52.446;-1.930;2022-12-07T05:42:18;100993.7031;;;;
44734;BME280;30462;52.446;-1.930;2022-12-07T05:43:18;100997.7031;;;;
44734;BME280;30462;52.446;-1.930;2022-12-07T05:44:18;100995.8867;;;;
44734;BME280;30462;52.446;-1.930;2022-12-07T05:45:18;100992.9766;;;;
44734;BME280;30462;52.446;-1.930;2022-12-07T05:46:18;101000.5273;;;;
44734;BME280;30462;52.446;-1.930;2022-12-07T05:47:17;100997.9883;;;;
44734;BME280;30462;52.446;-1.930;2022-12-07T05:48:18;100999.3203;;;;
44734;BME280;30462;52.446;-1.930;2022-12-07T05:49:17;100998.8594;;;;
44734;BME280;30462;52.446;-1.930;2022-12-07T05:50:18;101001.9297;;;;
44734;BME280;30462;52.446;-1.930;2022-12-07T05:51:18;101000.5156;;;;
44734;BME280;30462;52.446;-1.930;2022-12-07T05:52:18;101000.2266;;;;
44734;BME280;30462;52.446;-1.930;2022-12-07T05:53:19;101001.9805;;;;
44734;BME280;30462;52.446;-1.930;2022-12-07T05:54:18;101000.5664;;;;